createdAt,value
2018-01-18T05:00:43.284Z,0
2018-01-18T05:01:08.814Z,0
2018-01-18T05:01:34.299Z,0
2018-01-18T05:01:59.766Z,0
2018-01-18T05:02:25.213Z,0
2018-01-18T05:03:28.810Z,0
2018-01-18T05:03:54.295Z,0
2018-01-18T05:04:19.774Z,0
2018-01-18T05:04:45.267Z,0
2018-01-18T05:05:10.737Z,0
2018-01-18T05:05:36.235Z,0
2018-01-18T05:06:01.736Z,0
2018-01-18T05:06:27.219Z,0
2018-01-18T05:07:41.022Z,0
2018-01-18T05:08:06.478Z,0
2018-01-18T05:08:31.962Z,0
2018-01-18T05:08:57.458Z,0
2018-01-18T05:09:22.971Z,0
2018-01-18T05:09:48.447Z,0
2018-01-18T05:10:13.945Z,0
2018-01-18T05:10:39.477Z,0
2018-01-18T05:11:04.935Z,0
2018-01-18T05:11:30.442Z,0
2018-01-18T05:11:55.934Z,0
2018-01-18T05:12:21.427Z,0
2018-01-18T05:12:46.932Z,0
2018-01-18T05:13:12.488Z,0
2018-01-18T05:13:37.952Z,0
2018-01-18T05:14:03.431Z,0
2018-01-18T05:15:12.148Z,0
2018-01-18T05:15:37.616Z,0
2018-01-18T05:16:03.122Z,0
2018-01-18T05:16:28.603Z,0
2018-01-18T05:16:54.038Z,0
2018-01-18T05:17:19.538Z,0
2018-01-18T05:17:45.029Z,0
2018-01-18T05:18:10.507Z,0
2018-01-18T05:18:36.006Z,0
2018-01-18T05:19:01.459Z,0
2018-01-18T05:20:16.267Z,0
2018-01-18T05:20:41.743Z,0
2018-01-18T05:21:07.257Z,0
2018-01-18T05:21:32.786Z,0
2018-01-18T05:21:58.265Z,0
2018-01-18T05:22:23.746Z,0
2018-01-18T05:22:49.300Z,0
2018-01-18T05:23:14.757Z,0
2018-01-18T05:24:33.691Z,0
2018-01-18T05:24:59.190Z,0
2018-01-18T05:25:24.694Z,0
2018-01-18T05:25:50.182Z,0
2018-01-18T05:26:15.651Z,0
2018-01-18T05:26:41.184Z,0
2018-01-18T05:27:06.632Z,0
2018-01-18T05:27:32.123Z,0
2018-01-18T05:28:56.113Z,0
2018-01-18T05:29:21.628Z,0
2018-01-18T05:29:47.118Z,0
2018-01-18T05:30:12.571Z,0
2018-01-18T05:30:38.078Z,0
2018-01-18T05:31:03.566Z,0
2018-01-18T05:31:29.042Z,0
2018-01-18T05:31:54.554Z,0
2018-01-18T05:32:20.050Z,0
2018-01-18T05:32:45.522Z,0
2018-01-18T05:33:11.049Z,0
2018-01-18T05:33:36.523Z,0
2018-01-18T05:34:02.035Z,0
2018-01-18T05:34:27.498Z,0
2018-01-18T05:34:53.007Z,0
2018-01-18T05:35:18.469Z,0
2018-01-18T05:35:43.951Z,0
2018-01-18T05:36:57.751Z,0
2018-01-18T05:37:23.242Z,0
2018-01-18T05:37:48.729Z,0
2018-01-18T05:38:14.207Z,0
2018-01-18T05:38:39.681Z,0
2018-01-18T05:39:05.166Z,0
2018-01-18T05:39:30.637Z,0
2018-01-18T05:39:56.094Z,0
2018-01-18T05:40:21.600Z,0
2018-01-18T05:40:47.057Z,0
2018-01-18T05:41:12.541Z,0
2018-01-18T05:41:38.003Z,0
2018-01-18T05:42:46.689Z,0
2018-01-18T05:43:12.218Z,0
2018-01-18T05:43:37.699Z,0
2018-01-18T05:44:03.178Z,0
2018-01-18T05:44:28.640Z,0
2018-01-18T05:44:54.129Z,0
2018-01-18T05:45:19.670Z,0
2018-01-18T05:45:45.136Z,0
2018-01-18T05:46:10.662Z,0
2018-01-18T05:46:36.199Z,0
2018-01-18T05:47:01.714Z,0
2018-01-18T05:47:27.218Z,0
2018-01-18T05:47:52.665Z,0
2018-01-18T05:48:18.134Z,0
2018-01-18T05:48:43.633Z,0
2018-01-18T05:49:09.118Z,0
2018-01-18T05:49:34.646Z,0
2018-01-18T05:50:00.118Z,0
2018-01-18T05:50:25.596Z,0
2018-01-18T05:51:29.200Z,0
2018-01-18T05:51:54.707Z,0
2018-01-18T05:52:20.203Z,0
2018-01-18T05:52:45.838Z,0
2018-01-18T05:53:11.323Z,0
2018-01-18T05:53:38.544Z,0
2018-01-18T05:54:52.312Z,0
2018-01-18T05:55:17.812Z,0
2018-01-18T05:55:43.295Z,0
2018-01-18T05:56:08.779Z,0
2018-01-18T05:56:34.287Z,0
2018-01-18T05:56:59.770Z,0
2018-01-18T05:57:25.252Z,0
2018-01-18T05:57:50.728Z,0
2018-01-18T05:58:16.203Z,0
2018-01-18T05:58:41.689Z,0
2018-01-18T05:59:07.188Z,0
2018-01-18T05:59:32.693Z,0
2018-01-18T05:59:58.217Z,0
2018-01-18T06:00:23.688Z,0
2018-01-18T06:00:49.187Z,0
2018-01-18T06:01:14.641Z,0
2018-01-18T06:01:40.122Z,0
2018-01-18T06:02:54.293Z,0
2018-01-18T06:03:19.762Z,0
2018-01-18T06:03:45.263Z,0
2018-01-18T06:04:10.750Z,0
2018-01-18T06:04:36.229Z,0
2018-01-18T06:05:01.694Z,0
2018-01-18T06:05:27.178Z,0
2018-01-18T06:05:52.660Z,0
2018-01-18T06:06:18.155Z,0
2018-01-18T06:06:43.620Z,0
2018-01-18T06:07:09.102Z,0
2018-01-18T06:07:34.569Z,0
2018-01-18T06:08:00.067Z,0
2018-01-18T06:08:25.643Z,0
2018-01-18T06:08:51.130Z,0
2018-01-18T06:09:16.592Z,0
2018-01-18T06:09:42.100Z,0
2018-01-18T06:10:07.565Z,0
2018-01-18T06:10:33.067Z,0
2018-01-18T06:10:58.580Z,0
2018-01-18T06:11:24.072Z,0
2018-01-18T06:11:49.585Z,0
2018-01-18T06:12:15.174Z,0
2018-01-18T06:12:40.684Z,0
2018-01-18T06:13:06.174Z,0
2018-01-18T06:14:25.121Z,0
2018-01-18T06:14:50.656Z,0
2018-01-18T06:15:16.155Z,0
2018-01-18T06:15:41.655Z,0
2018-01-18T06:16:07.175Z,0
2018-01-18T06:16:32.662Z,0
2018-01-18T06:16:58.157Z,0
2018-01-18T06:17:23.654Z,0
2018-01-18T06:18:47.619Z,0
2018-01-18T06:19:13.124Z,0
2018-01-18T06:19:38.614Z,0
2018-01-18T06:20:04.113Z,0
2018-01-18T06:20:29.577Z,0
2018-01-18T06:20:55.067Z,0
2018-01-18T06:21:20.519Z,0
2018-01-18T06:21:45.995Z,0
2018-01-18T06:22:11.501Z,0
2018-01-18T06:22:36.961Z,0
2018-01-18T06:23:02.454Z,0
2018-01-18T06:24:26.487Z,0
2018-01-18T06:24:51.976Z,0
2018-01-18T06:25:17.451Z,0
2018-01-18T06:25:42.932Z,0
2018-01-18T06:26:08.412Z,0
2018-01-18T06:26:33.880Z,0
2018-01-18T06:26:59.361Z,0
2018-01-18T06:27:24.869Z,0
2018-01-18T06:27:50.373Z,0
2018-01-18T06:28:15.848Z,0
2018-01-18T06:28:41.361Z,0
2018-01-18T06:29:06.832Z,0
2018-01-18T06:29:32.320Z,0
2018-01-18T06:29:57.804Z,0
2018-01-18T06:30:23.247Z,0
2018-01-18T06:31:31.936Z,0
2018-01-18T06:31:57.451Z,0
2018-01-18T06:32:22.966Z,0
2018-01-18T06:32:48.449Z,0
2018-01-18T06:33:13.962Z,0
2018-01-18T06:33:39.458Z,0
2018-01-18T06:34:04.934Z,0
2018-01-18T06:34:30.426Z,0
2018-01-18T06:34:55.940Z,0
2018-01-18T06:35:21.394Z,0
2018-01-18T06:35:46.896Z,0
2018-01-18T06:36:12.359Z,0
2018-01-18T06:36:37.834Z,0
2018-01-18T06:37:03.332Z,0
2018-01-18T06:38:22.226Z,0
2018-01-18T06:38:47.712Z,0
2018-01-18T06:39:13.206Z,0
2018-01-18T06:39:38.652Z,0
2018-01-18T06:40:04.136Z,0
2018-01-18T06:40:29.642Z,0
2018-01-18T06:40:55.145Z,0
2018-01-18T06:41:20.636Z,0
2018-01-18T06:42:24.233Z,0
2018-01-18T06:42:49.742Z,0
2018-01-18T06:43:15.223Z,0
2018-01-18T06:43:40.719Z,0
2018-01-18T06:44:06.202Z,0
2018-01-18T06:44:31.711Z,0
2018-01-18T06:44:57.229Z,0
2018-01-18T06:45:22.725Z,0
2018-01-18T06:45:48.211Z,0
2018-01-18T06:46:13.718Z,0
2018-01-18T06:46:39.206Z,0
2018-01-18T06:47:42.800Z,0
2018-01-18T06:48:08.313Z,0
2018-01-18T06:48:33.780Z,0
2018-01-18T06:48:59.282Z,0
2018-01-18T06:49:24.760Z,0
2018-01-18T06:49:50.264Z,0
2018-01-18T06:50:15.817Z,0
2018-01-18T06:50:41.285Z,0
2018-01-18T06:51:06.834Z,0
2018-01-18T06:51:32.287Z,0
2018-01-18T06:51:57.804Z,0
2018-01-18T06:52:23.280Z,0
2018-01-18T06:52:48.760Z,0
2018-01-18T06:53:14.235Z,0
2018-01-18T06:53:39.761Z,0
2018-01-18T06:54:05.258Z,0
2018-01-18T06:54:30.729Z,0
2018-01-18T06:54:56.218Z,0
2018-01-18T06:55:21.697Z,0
2018-01-18T06:55:47.180Z,0
2018-01-18T06:56:12.664Z,0
2018-01-18T06:56:38.155Z,0
2018-01-18T06:57:03.644Z,0
2018-01-18T06:57:29.158Z,0
2018-01-18T06:57:54.646Z,0
2018-01-18T06:58:20.106Z,0
2018-01-18T06:58:45.600Z,0
2018-01-18T06:59:11.073Z,0
2018-01-18T06:59:36.550Z,0
2018-01-18T07:00:02.026Z,0
2018-01-18T07:00:27.531Z,0
2018-01-18T07:00:52.988Z,0
2018-01-18T07:01:18.516Z,0
2018-01-18T07:01:44.007Z,0
2018-01-18T07:02:09.484Z,0
2018-01-18T07:03:23.283Z,0
2018-01-18T07:03:48.792Z,0
2018-01-18T07:04:14.274Z,0
2018-01-18T07:04:39.752Z,0
2018-01-18T07:05:05.245Z,0
2018-01-18T07:05:30.777Z,0
2018-01-18T07:05:56.312Z,0
2018-01-18T07:06:21.789Z,0
2018-01-18T07:06:47.278Z,4
2018-01-18T07:07:12.755Z,4
2018-01-18T07:07:38.316Z,4
2018-01-18T07:08:03.830Z,4
2018-01-18T07:08:29.346Z,4
2018-01-18T07:08:54.833Z,4
2018-01-18T07:09:20.320Z,4
2018-01-18T07:09:45.805Z,4
2018-01-18T07:10:54.510Z,4
2018-01-18T07:11:20.003Z,4
2018-01-18T07:11:45.587Z,4
2018-01-18T07:12:11.030Z,4
2018-01-18T07:13:19.706Z,4
2018-01-18T07:13:45.210Z,4
2018-01-18T07:14:10.713Z,8
2018-01-18T07:14:36.193Z,8
2018-01-18T07:15:55.099Z,8
2018-01-18T07:16:20.600Z,8
2018-01-18T07:16:46.123Z,8
2018-01-18T07:17:11.591Z,4
2018-01-18T07:17:37.067Z,8
2018-01-18T07:18:02.535Z,12
2018-01-18T07:18:28.030Z,12
2018-01-18T07:18:53.569Z,12
2018-01-18T07:19:19.053Z,12
2018-01-18T07:20:32.857Z,12
2018-01-18T07:20:58.344Z,12
2018-01-18T07:22:22.358Z,16
2018-01-18T07:22:47.844Z,16
2018-01-18T07:23:13.323Z,16
2018-01-18T07:23:38.789Z,16
2018-01-18T07:24:04.252Z,16
2018-01-18T07:24:29.717Z,16
2018-01-18T07:24:55.237Z,16
2018-01-18T07:25:20.717Z,20
2018-01-18T07:25:46.201Z,20
2018-01-18T07:26:11.697Z,20
2018-01-18T07:26:37.182Z,20
2018-01-18T07:27:51.346Z,16
2018-01-18T07:28:16.648Z,20
2018-01-18T07:29:36.621Z,24
2018-01-18T07:30:02.139Z,20
2018-01-18T07:30:27.603Z,20
2018-01-18T07:30:53.101Z,32
2018-01-18T07:31:18.627Z,48
2018-01-18T07:31:44.125Z,56
2018-01-18T07:32:09.618Z,72
2018-01-18T07:32:35.085Z,76
2018-01-18T07:33:00.586Z,56
2018-01-18T07:33:26.112Z,52
2018-01-18T07:33:51.618Z,52
2018-01-18T07:34:17.119Z,60
2018-01-18T07:34:42.613Z,64
2018-01-18T07:35:08.077Z,68
2018-01-18T07:35:33.578Z,88
2018-01-18T07:35:59.045Z,76
2018-01-18T07:36:24.583Z,60
2018-01-18T07:36:50.088Z,48
2018-01-18T07:37:15.524Z,76
2018-01-18T07:37:41.038Z,112
2018-01-18T07:38:06.525Z,132
2018-01-18T07:38:32.306Z,104
2018-01-18T07:38:57.874Z,116
2018-01-18T07:40:16.843Z,144
2018-01-18T07:40:42.354Z,196
2018-01-18T07:41:07.864Z,208
2018-01-18T07:41:33.352Z,236
2018-01-18T07:41:58.826Z,228
2018-01-18T07:42:24.341Z,232
2018-01-18T07:42:49.820Z,228
2018-01-18T07:43:15.287Z,240
2018-01-18T07:43:40.767Z,208
2018-01-18T07:44:06.250Z,184
2018-01-18T07:44:31.733Z,140
2018-01-18T07:44:57.225Z,124
2018-01-18T07:45:22.692Z,112
2018-01-18T07:45:48.205Z,92
2018-01-18T07:46:13.739Z,96
2018-01-18T07:46:39.224Z,84
2018-01-18T07:47:04.684Z,64
2018-01-18T07:47:30.176Z,64
2018-01-18T07:47:55.633Z,84
2018-01-18T07:48:21.119Z,80
2018-01-18T07:48:46.592Z,140
2018-01-18T07:49:12.093Z,200
2018-01-18T07:50:30.980Z,180
2018-01-18T07:50:56.487Z,140
2018-01-18T07:51:22.002Z,136
2018-01-18T07:51:47.480Z,132
2018-01-18T07:52:12.985Z,116
2018-01-18T07:52:38.477Z,100
2018-01-18T07:53:03.953Z,84
2018-01-18T07:53:29.393Z,92
2018-01-18T07:53:54.899Z,116
2018-01-18T07:54:20.369Z,124
2018-01-18T07:55:34.171Z,196
2018-01-18T07:55:59.666Z,228
2018-01-18T07:56:25.171Z,220
2018-01-18T07:56:50.670Z,180
2018-01-18T07:57:16.175Z,172
2018-01-18T07:57:41.636Z,152
2018-01-18T07:58:07.138Z,132
2018-01-18T07:58:32.621Z,128
2018-01-18T07:58:58.134Z,88
2018-01-18T07:59:23.591Z,76
2018-01-18T07:59:49.072Z,84
2018-01-18T08:00:14.545Z,108
2018-01-18T08:01:18.156Z,116
2018-01-18T08:01:43.657Z,84
2018-01-18T08:02:09.144Z,120
2018-01-18T08:02:34.660Z,148
2018-01-18T08:03:00.149Z,124
2018-01-18T08:03:25.630Z,96
2018-01-18T08:03:51.106Z,100
2018-01-18T08:04:16.600Z,112
2018-01-18T08:04:42.091Z,140
2018-01-18T08:05:07.623Z,148
2018-01-18T08:05:33.086Z,152
2018-01-18T08:05:58.607Z,260
2018-01-18T08:06:24.079Z,300
2018-01-18T08:06:49.542Z,412
2018-01-18T08:07:15.077Z,608
2018-01-18T08:07:40.555Z,788
2018-01-18T08:08:06.029Z,804
2018-01-18T08:08:31.522Z,956
2018-01-18T08:09:35.119Z,968
2018-01-18T08:10:00.650Z,884
2018-01-18T08:10:26.161Z,848
2018-01-18T08:10:51.623Z,908
2018-01-18T08:11:17.118Z,844
2018-01-18T08:11:42.590Z,812
2018-01-18T08:12:08.083Z,892
2018-01-18T08:12:33.557Z,920
2018-01-18T08:13:38.162Z,1144
2018-01-18T08:14:03.627Z,1312
2018-01-18T08:14:29.125Z,1444
2018-01-18T08:14:54.593Z,1608
2018-01-18T08:15:20.091Z,1688
2018-01-18T08:15:45.568Z,1860
2018-01-18T08:16:11.099Z,2180
2018-01-18T08:16:36.570Z,2416
2018-01-18T08:17:02.007Z,1920
2018-01-18T08:17:27.493Z,1588
2018-01-18T08:17:53.011Z,1288
2018-01-18T08:18:18.472Z,812
2018-01-18T08:18:43.956Z,728
2018-01-18T08:19:09.438Z,804
2018-01-18T08:19:34.940Z,1064
2018-01-18T08:20:00.440Z,1284
2018-01-18T08:20:25.934Z,1528
2018-01-18T08:20:51.382Z,1700
2018-01-18T08:21:16.867Z,1820
2018-01-18T08:21:42.440Z,2172
2018-01-18T08:22:07.924Z,2484
2018-01-18T08:23:26.802Z,2436
2018-01-18T08:23:52.294Z,2584
2018-01-18T08:24:17.772Z,1912
2018-01-18T08:24:43.277Z,1812
2018-01-18T08:25:08.789Z,1264
2018-01-18T08:25:34.269Z,920
2018-01-18T08:25:59.784Z,796
2018-01-18T08:26:25.251Z,992
2018-01-18T08:26:50.747Z,996
2018-01-18T08:27:16.236Z,936
2018-01-18T08:27:41.721Z,876
2018-01-18T08:28:07.244Z,956
2018-01-18T08:28:32.713Z,1068
2018-01-18T08:28:58.200Z,1100
2018-01-18T08:29:23.694Z,1088
2018-01-18T08:29:49.227Z,1188
2018-01-18T08:30:14.690Z,1312
2018-01-18T08:30:40.211Z,1472
2018-01-18T08:31:05.716Z,1560
2018-01-18T08:31:31.164Z,1524
2018-01-18T08:31:56.650Z,1436
2018-01-18T08:32:22.163Z,1404
2018-01-18T08:32:47.671Z,1656
2018-01-18T08:33:13.143Z,2220
2018-01-18T08:33:38.621Z,2152
2018-01-18T08:34:04.105Z,2028
2018-01-18T08:34:29.592Z,1796
2018-01-18T08:34:55.073Z,1568
2018-01-18T08:35:20.553Z,1340
2018-01-18T08:35:46.040Z,1120
2018-01-18T08:36:54.753Z,800
2018-01-18T08:37:20.248Z,780
2018-01-18T08:37:45.730Z,812
2018-01-18T08:38:11.232Z,952
2018-01-18T08:39:30.111Z,1312
2018-01-18T08:39:55.600Z,1472
2018-01-18T08:40:21.090Z,1616
2018-01-18T08:40:46.577Z,1680
2018-01-18T08:41:12.046Z,1720
2018-01-18T08:41:37.552Z,1836
2018-01-18T08:42:03.066Z,1684
2018-01-18T08:42:28.535Z,1848
2018-01-18T08:42:54.040Z,2040
2018-01-18T08:43:57.655Z,2080
2018-01-18T08:44:23.141Z,1916
2018-01-18T08:44:48.618Z,1828
2018-01-18T08:45:14.114Z,1996
2018-01-18T08:45:39.585Z,2120
2018-01-18T08:46:58.516Z,1632
2018-01-18T08:47:24.008Z,1456
2018-01-18T08:47:49.553Z,1524
2018-01-18T08:48:15.009Z,1576
2018-01-18T08:49:39.227Z,656
2018-01-18T08:50:04.787Z,444
2018-01-18T08:50:30.276Z,400
2018-01-18T08:50:55.740Z,368
2018-01-18T08:51:21.236Z,384
2018-01-18T08:51:46.716Z,456
2018-01-18T08:52:12.185Z,616
2018-01-18T08:53:25.962Z,908
2018-01-18T08:53:51.480Z,792
2018-01-18T08:54:16.992Z,664
2018-01-18T08:54:42.433Z,704
2018-01-18T08:55:07.938Z,656
2018-01-18T08:55:33.741Z,692
2018-01-18T08:55:59.252Z,636
2018-01-18T08:56:24.771Z,632
2018-01-18T08:56:50.274Z,556
2018-01-18T08:57:15.808Z,592
2018-01-18T08:57:41.284Z,508
2018-01-18T08:58:06.779Z,420
2018-01-18T08:58:32.289Z,376
2018-01-18T08:58:57.806Z,332
2018-01-18T08:59:23.264Z,332
2018-01-18T08:59:48.744Z,352
2018-01-18T09:00:14.234Z,408
2018-01-18T09:00:39.723Z,416
2018-01-18T09:02:03.751Z,292
2018-01-18T09:02:29.238Z,336
2018-01-18T09:02:54.710Z,388
2018-01-18T09:03:20.224Z,352
2018-01-18T09:03:45.718Z,512
2018-01-18T09:04:11.204Z,540
2018-01-18T09:04:36.719Z,604
2018-01-18T09:05:02.184Z,820
2018-01-18T09:05:27.701Z,1144
2018-01-18T09:05:53.205Z,1212
2018-01-18T09:06:18.715Z,1660
2018-01-18T09:07:32.546Z,1888
2018-01-18T09:07:58.029Z,1872
2018-01-18T09:08:23.511Z,1600
2018-01-18T09:08:49.029Z,1096
2018-01-18T09:09:14.504Z,1108
2018-01-18T09:09:39.962Z,1612
2018-01-18T09:10:05.473Z,1820
2018-01-18T09:10:30.998Z,1664
2018-01-18T09:10:56.504Z,2012
2018-01-18T09:11:22.041Z,2348
2018-01-18T09:11:47.592Z,2500
2018-01-18T09:12:13.106Z,1732
2018-01-18T09:12:38.601Z,1052
2018-01-18T09:13:04.081Z,772
2018-01-18T09:13:29.583Z,988
2018-01-18T09:13:55.104Z,984
2018-01-18T09:14:20.632Z,1724
2018-01-18T09:14:46.080Z,2496
2018-01-18T09:15:11.531Z,2468
2018-01-18T09:15:36.995Z,1884
2018-01-18T09:16:02.543Z,1704
2018-01-18T09:16:28.069Z,1952
2018-01-18T09:16:53.556Z,1860
2018-01-18T09:17:19.028Z,1760
2018-01-18T09:17:44.505Z,2196
2018-01-18T09:18:10.008Z,2668
2018-01-18T09:18:35.526Z,2836
2018-01-18T09:19:01.001Z,3016
2018-01-18T09:19:26.540Z,3240
2018-01-18T09:19:52.063Z,3640
2018-01-18T09:20:17.584Z,3472
2018-01-18T09:20:43.143Z,3436
2018-01-18T09:22:02.438Z,2824
2018-01-18T09:22:27.934Z,2624
2018-01-18T09:22:53.404Z,2720
2018-01-18T09:23:18.891Z,2864
2018-01-18T09:23:44.387Z,2904
2018-01-18T09:24:09.856Z,2836
2018-01-18T09:24:35.365Z,2600
2018-01-18T09:25:00.885Z,2340
2018-01-18T09:25:26.421Z,2276
2018-01-18T09:25:51.930Z,2208
2018-01-18T09:26:17.408Z,2280
2018-01-18T09:26:42.888Z,2128
2018-01-18T09:27:08.373Z,1924
2018-01-18T09:27:33.896Z,1764
2018-01-18T09:27:59.388Z,1736
2018-01-18T09:28:24.899Z,2064
2018-01-18T09:28:50.430Z,2396
2018-01-18T09:29:15.830Z,2200
2018-01-18T09:29:41.330Z,2116
2018-01-18T09:30:06.807Z,2244
2018-01-18T09:30:32.396Z,2440
2018-01-18T09:30:57.952Z,2124
2018-01-18T09:31:23.574Z,1804
2018-01-18T09:31:49.023Z,1784
2018-01-18T09:32:14.544Z,1948
2018-01-18T09:32:40.065Z,2056
2018-01-18T09:33:05.538Z,1960
2018-01-18T09:33:31.335Z,1820
2018-01-18T09:33:56.888Z,1656
2018-01-18T09:34:22.387Z,1544
2018-01-18T09:34:48.056Z,1544
2018-01-18T09:35:13.360Z,2136
2018-01-18T09:35:38.831Z,2808
2018-01-18T09:36:04.326Z,3408
2018-01-18T09:36:29.925Z,3840
2018-01-18T09:36:55.393Z,4812
2018-01-18T09:37:20.887Z,5604
2018-01-18T09:37:46.473Z,5000
2018-01-18T09:38:11.948Z,3844
2018-01-18T09:38:37.485Z,3316
2018-01-18T09:39:02.980Z,3600
2018-01-18T09:39:28.511Z,3556
2018-01-18T09:39:53.990Z,3356
2018-01-18T09:41:12.938Z,3544
2018-01-18T09:41:38.429Z,4404
2018-01-18T09:42:03.941Z,5108
2018-01-18T09:42:29.419Z,4812
2018-01-18T09:43:33.026Z,3804
2018-01-18T09:43:58.529Z,3832
2018-01-18T09:44:23.995Z,3644
2018-01-18T09:44:49.481Z,3160
2018-01-18T09:45:14.984Z,2712
2018-01-18T09:45:40.455Z,2464
2018-01-18T09:46:05.962Z,2124
2018-01-18T09:46:31.440Z,2172
2018-01-18T09:46:56.920Z,2188
2018-01-18T09:47:22.413Z,2400
2018-01-18T09:47:47.950Z,1976
2018-01-18T09:48:13.378Z,1752
2018-01-18T09:48:38.891Z,1772
2018-01-18T09:49:04.394Z,1844
2018-01-18T09:49:29.894Z,2020
2018-01-18T09:49:55.415Z,1620
2018-01-18T09:50:20.956Z,1620
2018-01-18T09:50:46.393Z,1476
2018-01-18T09:51:11.954Z,1664
2018-01-18T09:51:37.386Z,1480
2018-01-18T09:52:02.904Z,1340
2018-01-18T09:52:28.419Z,1584
2018-01-18T09:52:53.920Z,1700
2018-01-18T09:53:19.393Z,1292
2018-01-18T09:53:44.926Z,984
2018-01-18T09:54:10.401Z,1356
2018-01-18T09:54:35.877Z,1396
2018-01-18T09:55:01.305Z,1256
2018-01-18T09:55:26.848Z,1360
2018-01-18T09:55:52.394Z,1500
2018-01-18T09:56:17.861Z,2116
2018-01-18T09:56:43.335Z,2296
2018-01-18T09:57:08.841Z,1720
2018-01-18T09:57:34.379Z,1416
2018-01-18T09:57:59.862Z,1792
2018-01-18T09:58:25.344Z,1872
2018-01-18T09:58:50.811Z,1532
2018-01-18T09:59:16.321Z,1056
2018-01-18T09:59:41.787Z,912
2018-01-18T10:00:07.274Z,896
2018-01-18T10:00:32.773Z,868
2018-01-18T10:00:58.249Z,992
2018-01-18T10:01:23.776Z,1364
2018-01-18T10:01:49.270Z,1728
2018-01-18T10:02:14.716Z,2212
2018-01-18T10:02:40.191Z,2276
2018-01-18T10:03:05.647Z,2128
2018-01-18T10:03:31.124Z,1872
2018-01-18T10:03:56.654Z,2276
2018-01-18T10:04:22.172Z,2548
2018-01-18T10:04:47.725Z,1988
2018-01-18T10:05:13.254Z,1208
2018-01-18T10:05:39.087Z,1176
2018-01-18T10:06:04.540Z,1548
2018-01-18T10:06:30.000Z,2284
2018-01-18T10:06:55.481Z,2624
2018-01-18T10:07:20.945Z,1748
2018-01-18T10:07:46.405Z,1756
2018-01-18T10:08:11.909Z,2144
2018-01-18T10:08:37.400Z,1848
2018-01-18T10:09:02.887Z,1644
2018-01-18T10:09:28.410Z,1528
2018-01-18T10:09:53.940Z,1648
2018-01-18T10:10:19.432Z,1528
2018-01-18T10:10:44.940Z,1612
2018-01-18T10:11:10.390Z,2252
2018-01-18T10:11:35.823Z,2220
2018-01-18T10:12:01.311Z,2344
2018-01-18T10:12:26.771Z,2776
2018-01-18T10:12:52.229Z,3184
2018-01-18T10:13:17.770Z,2840
2018-01-18T10:13:43.253Z,1972
2018-01-18T10:15:02.154Z,1396
2018-01-18T10:15:27.682Z,1256
2018-01-18T10:15:53.104Z,1284
2018-01-18T10:17:06.927Z,2376
2018-01-18T10:17:32.398Z,2012
2018-01-18T10:17:57.898Z,2168
2018-01-18T10:18:23.378Z,2116
2018-01-18T10:18:48.878Z,1592
2018-01-18T10:19:14.330Z,1908
2018-01-18T10:19:39.788Z,2544
2018-01-18T10:20:05.259Z,2144
2018-01-18T10:20:30.763Z,2624
2018-01-18T10:20:56.268Z,3068
2018-01-18T10:21:21.799Z,2356
2018-01-18T10:21:47.315Z,2468
2018-01-18T10:22:12.837Z,3136
2018-01-18T10:22:39.060Z,2076
2018-01-18T10:23:04.785Z,1412
2018-01-18T10:23:30.325Z,1656
2018-01-18T10:23:55.834Z,2812
2018-01-18T10:24:21.288Z,2288
2018-01-18T10:24:46.799Z,1376
2018-01-18T10:25:12.316Z,1480
2018-01-18T10:25:37.859Z,2876
2018-01-18T10:26:03.337Z,3880
2018-01-18T10:26:28.830Z,5252
2018-01-18T10:26:54.372Z,4248
2018-01-18T10:27:19.832Z,3220
2018-01-18T10:27:45.389Z,3444
2018-01-18T10:28:10.811Z,4480
2018-01-18T10:28:36.761Z,6028
2018-01-18T10:29:02.373Z,5460
2018-01-18T10:29:28.069Z,4972
2018-01-18T10:29:53.597Z,4380
2018-01-18T10:30:19.124Z,3120
2018-01-18T10:30:44.597Z,3080
2018-01-18T10:31:10.052Z,3676
2018-01-18T10:31:35.603Z,4468
2018-01-18T10:32:01.064Z,4728
2018-01-18T10:32:26.521Z,3904
2018-01-18T10:32:51.999Z,3932
2018-01-18T10:33:17.477Z,3876
2018-01-18T10:33:42.988Z,2956
2018-01-18T10:34:08.498Z,2456
2018-01-18T10:34:33.974Z,3940
2018-01-18T10:34:59.491Z,3956
2018-01-18T10:35:24.935Z,2972
2018-01-18T10:35:50.369Z,2492
2018-01-18T10:36:15.875Z,2064
2018-01-18T10:36:41.332Z,1440
2018-01-18T10:37:06.821Z,1200
2018-01-18T10:37:32.345Z,1568
2018-01-18T10:37:57.830Z,1548
2018-01-18T10:38:23.292Z,1568
2018-01-18T10:38:48.750Z,1868
2018-01-18T10:39:14.243Z,2220
2018-01-18T10:39:39.744Z,2120
2018-01-18T10:40:05.152Z,2840
2018-01-18T10:40:30.666Z,2984
2018-01-18T10:40:56.155Z,3252
2018-01-18T10:41:21.678Z,3184
2018-01-18T10:41:47.156Z,2960
2018-01-18T10:42:12.634Z,2264
2018-01-18T10:42:38.164Z,2104
2018-01-18T10:43:03.580Z,2084
2018-01-18T10:43:29.027Z,1736
2018-01-18T10:43:54.517Z,1632
2018-01-18T10:44:20.016Z,1760
2018-01-18T10:44:45.474Z,1308
2018-01-18T10:45:10.949Z,1300
2018-01-18T10:45:36.405Z,1508
2018-01-18T10:46:01.913Z,1608
2018-01-18T10:46:27.370Z,1820
2018-01-18T10:46:52.868Z,1444
2018-01-18T10:47:18.336Z,1904
2018-01-18T10:47:43.823Z,1576
2018-01-18T10:48:09.294Z,1880
2018-01-18T10:48:34.811Z,2252
2018-01-18T10:49:00.302Z,2228
2018-01-18T10:49:25.793Z,1828
2018-01-18T10:49:51.269Z,2268
2018-01-18T10:50:16.789Z,2544
2018-01-18T10:50:42.286Z,1808
2018-01-18T10:51:07.712Z,1572
2018-01-18T10:51:33.195Z,1420
2018-01-18T10:52:36.793Z,1368
2018-01-18T10:53:02.296Z,1676
2018-01-18T10:53:27.780Z,1604
2018-01-18T10:53:53.278Z,1656
2018-01-18T10:54:18.779Z,1740
2018-01-18T10:54:44.218Z,1716
2018-01-18T10:55:09.722Z,2720
2018-01-18T10:55:35.231Z,2220
2018-01-18T10:56:00.678Z,1380
2018-01-18T10:56:26.157Z,1440
2018-01-18T10:56:51.624Z,2052
2018-01-18T10:57:17.126Z,2608
2018-01-18T10:57:42.574Z,2216
2018-01-18T10:58:08.049Z,1768
2018-01-18T10:58:33.521Z,1880
2018-01-18T10:58:58.993Z,2064
2018-01-18T10:59:24.434Z,1756
2018-01-18T10:59:49.916Z,1620
2018-01-18T11:00:15.414Z,1764
2018-01-18T11:01:34.488Z,1900
2018-01-18T11:01:59.966Z,2296
2018-01-18T11:02:25.449Z,2492
2018-01-18T11:02:50.957Z,2352
2018-01-18T11:03:16.442Z,1840
2018-01-18T11:03:41.941Z,1516
2018-01-18T11:04:07.404Z,1408
2018-01-18T11:04:32.872Z,1600
2018-01-18T11:04:58.347Z,1552
2018-01-18T11:05:23.794Z,1640
2018-01-18T11:05:49.309Z,1504
2018-01-18T11:06:57.978Z,2084
2018-01-18T11:07:23.469Z,1820
2018-01-18T11:07:48.944Z,1796
2018-01-18T11:08:14.421Z,2188
2018-01-18T11:08:39.887Z,1588
2018-01-18T11:09:05.399Z,1432
2018-01-18T11:09:30.880Z,1328
2018-01-18T11:09:56.326Z,1268
2018-01-18T11:10:21.816Z,1636
2018-01-18T11:10:47.330Z,1476
2018-01-18T11:11:12.774Z,2000
2018-01-18T11:11:38.230Z,2368
2018-01-18T11:12:03.701Z,2688
2018-01-18T11:12:29.153Z,2108
2018-01-18T11:12:54.662Z,2312
2018-01-18T11:13:20.126Z,2228
2018-01-18T11:14:23.731Z,1996
2018-01-18T11:14:49.225Z,1412
2018-01-18T11:15:14.695Z,1568
2018-01-18T11:15:40.194Z,1640
2018-01-18T11:16:05.650Z,1884
2018-01-18T11:16:31.120Z,1836
2018-01-18T11:16:56.591Z,2072
2018-01-18T11:17:22.072Z,2312
2018-01-18T11:17:47.565Z,2120
2018-01-18T11:18:13.024Z,2312
2018-01-18T11:18:38.500Z,2240
2018-01-18T11:19:03.974Z,2960
2018-01-18T11:19:29.480Z,2556
2018-01-18T11:19:54.970Z,2192
2018-01-18T11:20:20.416Z,1976
2018-01-18T11:20:45.887Z,2476
2018-01-18T11:21:11.393Z,2420
2018-01-18T11:21:36.907Z,2120
2018-01-18T11:22:02.385Z,2276
2018-01-18T11:22:27.900Z,1960
2018-01-18T11:22:53.442Z,1816
2018-01-18T11:23:18.918Z,2028
2018-01-18T11:23:44.397Z,2452
2018-01-18T11:24:09.888Z,2152
2018-01-18T11:24:35.389Z,1944
2018-01-18T11:25:00.886Z,1736
2018-01-18T11:25:26.379Z,2664
2018-01-18T11:25:51.852Z,2320
2018-01-18T11:26:17.372Z,1888
2018-01-18T11:26:42.844Z,1844
2018-01-18T11:27:08.314Z,1668
2018-01-18T11:27:33.811Z,1796
2018-01-18T11:27:59.291Z,1632
2018-01-18T11:28:24.764Z,1928
2018-01-18T11:28:50.237Z,1656
2018-01-18T11:29:58.960Z,1680
2018-01-18T11:30:24.457Z,1532
2018-01-18T11:30:49.960Z,1412
2018-01-18T11:31:15.445Z,1504
2018-01-18T11:31:40.934Z,1476
2018-01-18T11:32:06.432Z,1960
2018-01-18T11:32:31.915Z,1812
2018-01-18T11:33:55.962Z,1784
2018-01-18T11:34:21.417Z,1396
2018-01-18T11:34:46.887Z,1424
2018-01-18T11:35:50.471Z,1944
2018-01-18T11:36:15.975Z,2432
2018-01-18T11:36:41.414Z,1760
2018-01-18T11:37:50.093Z,1260